Time;durP1;ratioP1;P1;durP2;ratioP2;P2;SDS_P1;SDS_P2;PMS_P1;PMS_P2;Temp;Humidity;BMP_temperature;BMP_pressure;BME280_temperature;BME280_humidity;BME280_pressure;Samples;Min_cycle;Max_cycle;Signal;HPM_P1;HPM_P2
2023/09/29 00:01:48;;;;;;;4.40;3.20;;;19.70;99.90;;;20.14;nan;100764.38;4919940;29;20698;-69
2023/09/29 00:04:15;;;;;;;10.10;4.00;;;19.70;99.90;;;20.08;nan;100765.03;4911354;29;20995;-69
2023/09/29 00:06:42;;;;;;;5.50;4.43;;;19.60;99.90;;;19.99;nan;100770.53;4911208;29;20673;-69
2023/09/29 00:09:12;;;;;;;5.20;4.10;;;19.50;99.90;;;19.94;nan;100776.31;4914800;29;20634;-66
2023/09/29 00:11:39;;;;;;;3.77;3.40;;;19.50;99.90;;;19.87;nan;100769.19;4917120;29;20637;-69
2023/09/29 00:14:06;;;;;;;5.37;3.50;;;19.40;99.90;;;19.83;nan;100779.31;4910533;29;20650;-67
2023/09/29 00:16:33;;;;;;;5.83;3.90;;;19.30;99.90;;;19.77;nan;100776.50;4921565;29;20669;-66
2023/09/29 00:19:01;;;;;;;3.93;3.40;;;19.30;99.90;;;19.69;nan;100773.84;4914065;29;20683;-68
2023/09/29 00:21:28;;;;;;;4.57;3.60;;;19.20;99.90;;;19.64;nan;100782.28;4916730;29;20638;-66
2023/09/29 00:23:55;;;;;;;5.20;3.80;;;19.20;99.90;;;19.59;nan;100787.22;4905282;29;20649;-67
2023/09/29 00:26:22;;;;;;;9.53;4.83;;;19.10;99.90;;;19.60;nan;100783.59;4928081;29;20665;-69
2023/09/29 00:28:50;;;;;;;5.57;4.47;;;19.10;99.90;;;19.64;nan;100786.75;4913693;29;21058;-68
2023/09/29 00:31:16;;;;;;;6.57;4.80;;;19.10;99.90;;;19.67;nan;100781.97;4904691;29;21030;-69
2023/09/29 00:33:44;;;;;;;5.83;4.37;;;19.20;99.90;;;19.72;nan;100778.81;4924639;29;20642;-67
2023/09/29 00:36:14;;;;;;;5.10;4.30;;;19.20;99.90;;;19.75;nan;100774.03;4912111;29;20653;-66
2023/09/29 00:38:41;;;;;;;5.80;4.10;;;19.20;99.90;;;19.78;nan;100778.16;4925947;29;20670;-68
2023/09/29 00:41:08;;;;;;;4.30;3.90;;;19.20;99.90;;;19.73;nan;100776.00;4913433;29;21389;-68
2023/09/29 00:43:35;;;;;;;9.20;4.60;;;19.20;99.90;;;19.64;nan;100762.91;4912824;29;21176;-67
2023/09/29 00:46:08;;;;;;;4.00;3.53;;;19.20;99.90;;;19.48;nan;100757.63;4912890;29;20649;-68
2023/09/29 00:48:38;;;;;;;7.23;3.63;;;19.00;99.90;;;19.38;nan;100755.13;4910092;29;20652;-67
2023/09/29 00:51:06;;;;;;;4.60;4.07;;;18.90;99.90;;;19.32;nan;100750.47;4926814;29;20631;-67
2023/09/29 00:53:34;;;;;;;4.87;3.93;;;18.80;99.90;;;19.31;nan;100754.13;4922395;29;20664;-68
2023/09/29 00:56:02;;;;;;;5.17;3.50;;;18.80;99.90;;;19.35;nan;100750.19;4927218;29;20670;-69
2023/09/29 00:58:29;;;;;;;3.23;3.03;;;18.80;99.90;;;19.37;nan;100747.38;4928636;29;20645;-67
2023/09/29 01:00:57;;;;;;;5.17;3.80;;;18.90;99.90;;;19.36;nan;100743.88;4912912;29;20657;-70
2023/09/29 01:03:24;;;;;;;3.80;3.43;;;18.90;99.90;;;19.37;nan;100755.31;4907570;29;20673;-67
2023/09/29 01:05:52;;;;;;;3.17;2.97;;;18.90;99.90;;;19.41;nan;100752.16;4922382;29;20668;-69
2023/09/29 01:08:22;;;;;;;3.60;3.30;;;18.90;99.90;;;19.44;nan;100754.50;4913924;29;20645;-68
2023/09/29 01:10:52;;;;;;;7.00;4.00;;;18.90;99.90;;;19.51;nan;100755.47;4912446;29;21263;-68
2023/09/29 01:13:20;;;;;;;4.40;3.30;;;19.00;99.90;;;19.53;nan;100748.19;4913171;29;21413;-68
2023/09/29 01:15:47;;;;;;;3.67;3.33;;;19.00;99.90;;;19.51;nan;100744.06;4914347;29;20684;-68
2023/09/29 01:18:16;;;;;;;4.27;3.80;;;19.00;99.90;;;19.49;nan;100748.69;4906634;29;20717;-68
2023/09/29 01:20:43;;;;;;;4.50;3.87;;;19.00;99.90;;;19.50;nan;100753.00;4929396;29;20645;-70
2023/09/29 01:23:11;;;;;;;5.00;4.10;;;19.00;99.90;;;19.46;nan;100763.09;4910576;29;20681;-68
2023/09/29 01:25:39;;;;;;;3.83;2.90;;;18.90;99.90;;;19.50;nan;100760.94;4929483;29;20668;-69
2023/09/29 01:28:08;;;;;;;6.90;4.73;;;19.00;99.90;;;19.51;nan;100763.41;4913755;29;20634;-65
2023/09/29 01:30:36;;;;;;;3.97;3.57;;;19.00;99.90;;;19.52;nan;100757.13;4913858;29;20637;-69
2023/09/29 01:33:04;;;;;;;4.43;3.33;;;19.00;99.90;;;19.55;nan;100761.28;4909508;29;20650;-69
2023/09/29 01:35:31;;;;;;;4.70;3.37;;;19.00;99.90;;;19.52;nan;100761.59;4913238;29;20665;-69
2023/09/29 01:37:59;;;;;;;3.40;3.10;;;19.00;99.90;;;19.49;nan;100757.47;4912431;29;20646;-69
2023/09/29 01:40:27;;;;;;;4.90;3.57;;;19.00;99.90;;;19.50;nan;100759.13;4915434;29;21141;-69
2023/09/29 01:42:56;;;;;;;7.87;3.50;;;19.00;99.90;;;19.49;nan;100765.41;4913647;29;20626;-71
2023/09/29 01:45:25;;;;;;;5.80;3.90;;;19.00;99.90;;;19.52;nan;100767.72;4913027;29;20646;-69
2023/09/29 01:47:52;;;;;;;3.93;3.63;;;19.00;99.90;;;19.51;nan;100766.06;4911990;29;20664;-69
2023/09/29 01:50:21;;;;;;;4.27;3.60;;;19.00;99.90;;;19.52;nan;100758.97;4911621;29;20653;-69
2023/09/29 01:52:49;;;;;;;5.37;4.10;;;19.00;99.90;;;19.55;nan;100756.78;4895016;29;20646;-69
2023/09/29 01:55:22;;;;;;;3.40;3.10;;;19.00;99.90;;;19.57;nan;100749.50;4914551;29;20638;-69
2023/09/29 01:57:54;;;;;;;5.47;3.80;;;19.10;99.90;;;19.54;nan;100755.16;4910814;29;21700;-69
2023/09/29 02:00:24;;;;;;;7.10;3.93;;;19.00;99.90;;;19.53;nan;100752.69;4914694;29;20681;-71
2023/09/29 02:02:53;;;;;;;2.97;2.77;;;19.00;99.90;;;19.47;nan;100754.16;4910986;29;20646;-69
2023/09/29 02:05:23;;;;;;;5.10;3.30;;;19.00;99.90;;;19.44;nan;100751.84;4925467;29;20649;-69
2023/09/29 02:07:50;;;;;;;3.27;2.97;;;18.90;99.90;;;19.37;nan;100752.66;4919952;29;21199;-68
2023/09/29 02:10:20;;;;;;;4.20;3.87;;;18.90;99.90;;;19.31;nan;100748.81;4904033;29;20637;-69
2023/09/29 02:12:54;;;;;;;4.70;3.00;;;18.80;99.90;;;19.27;nan;100747.50;4910185;29;20650;-69
2023/09/29 02:15:21;;;;;;;4.23;3.70;;;18.80;99.90;;;19.22;nan;100741.84;4909330;29;20653;-68
2023/09/29 02:17:49;;;;;;;4.27;3.90;;;18.70;99.90;;;19.22;nan;100745.34;4911214;29;20657;-68
2023/09/29 02:20:20;;;;;;;4.13;3.77;;;18.70;99.90;;;19.26;nan;100745.81;4913547;29;21314;-69
2023/09/29 02:22:50;;;;;;;5.40;4.27;;;18.80;99.90;;;19.27;nan;100745.66;4913504;29;21007;-69
2023/09/29 02:25:18;;;;;;;5.27;4.20;;;18.80;99.90;;;19.29;nan;100745.50;4913777;29;20634;-69
2023/09/29 02:27:48;;;;;;;4.97;3.60;;;18.80;99.90;;;19.31;nan;100743.53;4923028;29;21062;-66
2023/09/29 02:30:16;;;;;;;4.13;3.60;;;18.80;99.90;;;19.27;nan;100743.00;4910100;29;20642;-68
2023/09/29 02:32:43;;;;;;;3.27;2.97;;;18.80;99.90;;;19.23;nan;100746.97;4901775;29;20645;-68
2023/09/29 02:35:10;;;;;;;4.70;3.60;;;18.80;99.90;;;19.21;nan;100750.78;4925351;29;21229;-69
2023/09/29 02:37:38;;;;;;;5.40;3.77;;;18.70;99.90;;;19.14;nan;100741.84;4927515;29;20658;-68
2023/09/29 02:40:12;;;;;;;4.60;3.47;;;18.70;99.90;;;19.08;nan;100742.50;4910699;29;20666;-67
2023/09/29 02:42:40;;;;;;;5.10;3.70;;;18.60;99.90;;;19.04;nan;100762.31;4911606;29;20669;-68
2023/09/29 02:45:07;;;;;;;5.90;3.90;;;18.60;99.90;;;19.07;nan;100762.00;4908377;29;20646;-68
2023/09/29 02:47:41;;;;;;;5.23;4.37;;;18.60;99.90;;;19.08;nan;100766.31;4913752;29;20666;-66
2023/09/29 02:50:10;;;;;;;5.10;3.60;;;18.60;99.90;;;19.13;nan;100761.34;4907013;29;20642;-69
2023/09/29 02:52:40;;;;;;;3.83;3.50;;;18.60;99.90;;;19.17;nan;100768.78;4908980;29;20650;-69
2023/09/29 02:55:12;;;;;;;6.50;3.53;;;18.70;99.90;;;19.14;nan;100774.44;4909624;29;20642;-67
2023/09/29 02:57:41;;;;;;;4.67;4.10;;;18.70;99.90;;;19.16;nan;100774.25;4911627;29;20618;-66
2023/09/29 03:00:15;;;;;;;5.83;2.90;;;18.70;99.90;;;19.15;nan;100776.06;4909272;29;21089;-68
2023/09/29 03:02:42;;;;;;;3.17;2.90;;;18.70;99.90;;;19.12;nan;100773.72;4924532;29;20693;-68
2023/09/29 03:05:10;;;;;;;4.13;3.70;;;18.70;99.90;;;19.10;nan;100773.06;4910513;29;20642;-68
2023/09/29 03:07:37;;;;;;;4.50;4.07;;;18.60;99.90;;;19.11;nan;100773.91;4911944;29;21012;-70
2023/09/29 03:10:05;;;;;;;5.30;4.30;;;18.60;99.90;;;19.15;nan;100772.59;4911932;29;20634;-69
2023/09/29 03:12:32;;;;;;;4.40;4.00;;;18.70;99.90;;;19.15;nan;100767.28;4917718;29;21200;-67
2023/09/29 03:14:59;;;;;;;6.80;3.50;;;18.70;99.90;;;19.12;nan;100765.78;4907855;29;21026;-70
2023/09/29 03:17:30;;;;;;;7.40;3.80;;;18.70;99.90;;;19.08;nan;100763.66;4905702;29;21329;-69
2023/09/29 03:19:58;;;;;;;4.30;3.70;;;18.60;99.90;;;19.04;nan;100757.00;4918299;29;20684;-70
2023/09/29 03:22:25;;;;;;;4.07;3.70;;;18.60;99.90;;;19.02;nan;100764.28;4923770;29;20654;-68
2023/09/29 03:24:52;;;;;;;3.57;3.20;;;18.50;99.90;;;18.99;nan;100764.63;4912067;29;20630;-68
2023/09/29 03:27:19;;;;;;;6.67;4.00;;;18.50;99.90;;;18.97;nan;100761.31;4926126;29;20674;-68
2023/09/29 03:29:46;;;;;;;6.13;3.67;;;18.50;99.90;;;18.95;nan;100758.81;4913588;29;20654;-69
2023/09/29 03:32:13;;;;;;;5.37;3.27;;;18.50;99.90;;;18.97;nan;100761.31;4913059;29;20646;-68
2023/09/29 03:34:41;;;;;;;5.77;3.27;;;18.50;99.90;;;18.97;nan;100756.84;4912079;29;20645;-67
2023/09/29 03:37:08;;;;;;;4.30;3.20;;;18.50;99.90;;;18.97;nan;100756.03;4905221;29;20673;-68
2023/09/29 03:39:35;;;;;;;4.00;3.37;;;18.50;99.90;;;18.94;nan;100754.53;4905303;29;20694;-68
2023/09/29 03:42:02;;;;;;;5.07;3.43;;;18.40;99.90;;;18.96;nan;100754.34;4905629;29;20649;-68
2023/09/29 03:44:29;;;;;;;3.43;3.13;;;18.50;99.90;;;18.97;nan;100750.72;4901749;29;20685;-68
2023/09/29 03:46:56;;;;;;;4.43;3.80;;;18.50;99.90;;;19.01;nan;100755.53;4912093;29;20668;-68
2023/09/29 03:49:24;;;;;;;4.37;3.60;;;18.50;99.90;;;19.03;nan;100752.72;4911812;29;20629;-70
2023/09/29 03:51:51;;;;;;;6.17;3.80;;;18.60;99.90;;;19.04;nan;100757.00;4913555;29;20638;-68
2023/09/29 03:54:18;;;;;;;12.20;3.87;;;18.60;99.90;;;19.03;nan;100758.84;4909274;29;21211;-68
2023/09/29 03:56:45;;;;;;;5.13;3.50;;;18.60;99.90;;;19.06;nan;100755.06;4910815;29;20674;-69
2023/09/29 03:59:12;;;;;;;4.13;3.47;;;18.60;99.90;;;19.07;nan;100756.69;4911995;29;20649;-68
2023/09/29 04:01:39;;;;;;;5.83;4.53;;;18.60;99.90;;;19.10;nan;100761.69;4911333;29;20653;-70
2023/09/29 04:04:06;;;;;;;4.50;3.93;;;18.60;99.90;;;19.15;nan;100756.72;4906758;29;20653;-68
2023/09/29 04:06:34;;;;;;;5.37;4.87;;;18.70;99.90;;;19.19;nan;100758.88;4913319;29;20657;-69
2023/09/29 04:09:01;;;;;;;5.83;4.70;;;18.70;99.90;;;19.22;nan;100760.38;4912606;29;20642;-69
2023/09/29 04:11:28;;;;;;;6.43;4.90;;;18.70;99.90;;;19.26;nan;100761.69;4911390;29;20665;-67
2023/09/29 04:13:55;;;;;;;10.10;4.77;;;18.80;99.90;;;19.29;nan;100771.97;4912903;29;20641;-68
2023/09/29 04:16:22;;;;;;;6.57;4.90;;;18.80;99.90;;;19.31;nan;100770.78;4912376;29;20669;-69
2023/09/29 04:18:49;;;;;;;5.63;4.33;;;18.80;99.90;;;19.34;nan;100775.81;4910330;29;20661;-68
2023/09/29 04:21:16;;;;;;;6.00;4.60;;;18.80;99.90;;;19.34;nan;100774.97;4912558;29;20673;-69
2023/09/29 04:23:46;;;;;;;5.03;4.50;;;18.90;99.90;;;19.33;nan;100773.28;4905073;29;20660;-71
2023/09/29 04:26:15;;;;;;;5.93;4.37;;;18.90;99.90;;;19.34;nan;100778.44;4927547;29;20667;-69
2023/09/29 04:28:42;;;;;;;5.87;4.80;;;18.90;99.90;;;19.36;nan;100772.97;4928046;29;20664;-67
2023/09/29 04:31:10;;;;;;;5.30;4.60;;;18.90;99.90;;;19.38;nan;100781.59;4916993;29;21221;-68
2023/09/29 04:33:37;;;;;;;6.10;4.50;;;18.90;99.90;;;19.38;nan;100776.28;4915411;29;21219;-68
2023/09/29 04:36:06;;;;;;;19.13;5.83;;;18.90;99.90;;;19.37;nan;100779.94;4916987;29;20676;-67
2023/09/29 04:38:35;;;;;;;9.90;5.97;;;18.90;99.90;;;19.31;nan;100778.72;4914672;29;20716;-68
2023/09/29 04:41:04;;;;;;;11.03;7.20;;;18.80;99.90;;;19.26;nan;100777.56;4925723;29;20666;-68
2023/09/29 04:43:31;;;;;;;12.77;6.90;;;18.80;99.90;;;19.21;nan;100780.69;4923142;29;20637;-69
2023/09/29 04:45:58;;;;;;;17.17;8.43;;;18.80;99.90;;;19.15;nan;100778.72;4924361;29;20949;-69
2023/09/29 04:48:25;;;;;;;12.80;7.27;;;18.70;99.90;;;19.11;nan;100781.84;4912767;29;20637;-69
2023/09/29 04:50:54;;;;;;;15.43;8.43;;;18.70;99.90;;;19.09;nan;100778.53;4930503;29;20645;-68
2023/09/29 04:53:21;;;;;;;14.80;8.63;;;18.70;99.90;;;19.09;nan;100778.53;4927999;29;20650;-68
2023/09/29 04:55:49;;;;;;;14.07;8.00;;;18.70;99.90;;;19.06;nan;100776.22;4899877;29;20673;-69
2023/09/29 04:58:16;;;;;;;13.43;7.40;;;18.60;99.90;;;19.06;nan;100763.00;4914574;29;20649;-69
2023/09/29 05:00:43;;;;;;;15.03;8.50;;;18.60;99.90;;;19.04;nan;100772.88;4912990;29;20693;-68
2023/09/29 05:03:10;;;;;;;18.27;8.67;;;18.60;99.90;;;19.03;nan;100784.47;4910262;29;20650;-69
2023/09/29 05:05:39;;;;;;;12.07;8.00;;;18.60;99.90;;;19.02;nan;100780.16;4904878;29;20657;-67
2023/09/29 05:08:06;;;;;;;10.77;6.57;;;18.60;99.90;;;19.02;nan;100780.16;4928840;29;20634;-69
2023/09/29 05:10:33;;;;;;;12.40;6.07;;;18.60;99.90;;;18.99;nan;100777.84;4927942;29;20654;-69
2023/09/29 05:13:00;;;;;;;8.27;5.73;;;18.50;99.90;;;18.95;nan;100766.75;4906161;29;20638;-68
2023/09/29 05:15:27;;;;;;;6.83;4.40;;;18.50;99.90;;;18.90;nan;100766.41;4908469;29;20650;-69
2023/09/29 05:17:54;;;;;;;9.17;4.80;;;18.40;99.90;;;18.90;nan;100770.88;4925401;29;20642;-69
2023/09/29 05:20:22;;;;;;;5.90;4.53;;;18.40;99.90;;;18.90;nan;100769.06;4910034;29;20670;-69
2023/09/29 05:22:50;;;;;;;9.10;3.70;;;18.40;99.90;;;18.91;nan;100765.41;4908765;29;20649;-69
2023/09/29 05:25:17;;;;;;;7.03;4.53;;;18.40;99.90;;;18.92;nan;100767.06;4912431;29;21215;-70
2023/09/29 05:27:44;;;;;;;5.33;3.97;;;18.40;99.90;;;18.93;nan;100767.91;4913527;29;20622;-69
2023/09/29 05:30:12;;;;;;;5.20;3.87;;;18.50;99.90;;;18.92;nan;100771.53;4912649;29;20649;-70
2023/09/29 05:32:39;;;;;;;4.83;3.40;;;18.50;99.90;;;18.95;nan;100768.56;4914361;29;21010;-69
2023/09/29 05:35:08;;;;;;;4.83;4.10;;;18.50;99.90;;;18.97;nan;100790.41;4911726;29;20646;-68
2023/09/29 05:37:35;;;;;;;5.27;4.23;;;18.50;99.90;;;19.01;nan;100792.56;4913418;29;21279;-70
2023/09/29 05:40:03;;;;;;;6.37;3.70;;;18.50;99.90;;;19.04;nan;100783.47;4914721;29;20681;-68
2023/09/29 05:42:30;;;;;;;5.27;3.97;;;18.50;99.90;;;19.05;nan;100793.06;4914367;29;20642;-69
2023/09/29 05:45:15;;;;;;;4.00;3.37;;;18.60;99.90;;;19.04;nan;100789.59;4907036;29;20642;-70
2023/09/29 05:47:42;;;;;;;3.10;2.80;;;18.60;99.90;;;19.02;nan;100786.28;4906400;29;21026;-70
2023/09/29 05:50:09;;;;;;;6.43;4.30;;;18.60;99.90;;;18.99;nan;100797.19;4910714;29;20999;-69
2023/09/29 05:52:44;;;;;;;3.40;3.13;;;18.50;99.90;;;18.97;nan;100793.03;4914304;29;20647;-69
2023/09/29 05:55:22;;;;;;;6.37;3.47;;;18.50;99.90;;;18.94;nan;100793.34;4914482;29;20656;-69
2023/09/29 05:57:50;;;;;;;5.07;3.70;;;18.50;99.90;;;18.96;nan;100788.72;4911826;29;20656;-68
2023/09/29 06:00:19;;;;;;;5.00;3.63;;;18.50;99.90;;;19.00;nan;100790.91;4912398;29;20674;-69
2023/09/29 06:02:46;;;;;;;6.37;4.00;;;18.50;99.90;;;19.04;nan;100794.88;4902443;29;21223;-69
2023/09/29 06:05:14;;;;;;;4.27;3.87;;;18.60;99.90;;;19.07;nan;100791.91;4914153;29;21239;-71
2023/09/29 06:07:41;;;;;;;4.07;3.67;;;18.60;99.90;;;19.13;nan;100791.28;4912228;29;20642;-68
2023/09/29 06:10:10;;;;;;;3.30;3.00;;;18.60;99.90;;;19.18;nan;100793.44;4911101;29;20648;-69
2023/09/29 06:12:37;;;;;;;4.37;3.70;;;18.70;99.90;;;19.19;nan;100793.25;4926913;29;20646;-70
2023/09/29 06:15:06;;;;;;;4.53;3.97;;;18.70;99.90;;;19.19;nan;100787.13;4913228;29;20638;-69
2023/09/29 06:17:33;;;;;;;3.97;2.80;;;18.70;99.90;;;19.16;nan;100787.47;4907955;29;20689;-69
2023/09/29 06:20:00;;;;;;;5.67;3.70;;;18.70;99.90;;;19.17;nan;100792.59;4912834;29;20642;-69
2023/09/29 06:22:27;;;;;;;3.60;3.10;;;18.70;99.90;;;19.18;nan;100796.09;4910495;29;20642;-68
2023/09/29 06:24:54;;;;;;;3.80;3.40;;;18.70;99.90;;;19.14;nan;100787.66;4913746;29;20638;-69
2023/09/29 06:27:21;;;;;;;4.03;3.27;;;18.70;99.90;;;19.14;nan;100778.88;4911766;29;20672;-68
2023/09/29 06:29:50;;;;;;;3.10;2.83;;;18.70;99.90;;;19.21;nan;100782.50;4912204;29;20642;-69
2023/09/29 06:32:17;;;;;;;5.40;3.60;;;18.70;99.90;;;19.23;nan;100783.19;4913359;29;20638;-69
2023/09/29 06:34:44;;;;;;;3.87;3.23;;;18.80;99.90;;;19.28;nan;100783.53;4907671;29;20672;-68
2023/09/29 06:37:11;;;;;;;4.40;3.73;;;18.80;99.90;;;19.30;nan;100778.91;4914461;29;21314;-68
2023/09/29 06:39:38;;;;;;;5.40;3.80;;;18.80;99.90;;;19.35;nan;100800.44;4912148;29;21188;-69
2023/09/29 06:42:05;;;;;;;6.70;4.27;;;18.80;99.90;;;19.40;nan;100810.56;4913455;29;21263;-69
2023/09/29 06:44:33;;;;;;;4.07;3.67;;;18.90;99.90;;;19.44;nan;100825.94;4910282;29;21018;-67
2023/09/29 06:47:00;;;;;;;6.47;3.87;;;18.90;99.90;;;19.51;nan;100826.09;4924207;29;21275;-66
2023/09/29 06:49:27;;;;;;;6.70;3.83;;;19.00;99.90;;;19.62;nan;100825.78;4907005;29;20645;-67
2023/09/29 06:51:54;;;;;;;6.40;4.07;;;19.10;99.90;;;19.73;nan;100830.78;4905276;29;20634;-69
2023/09/29 06:54:21;;;;;;;5.00;3.63;;;19.20;99.90;;;19.80;nan;100829.97;4909806;29;20649;-67
2023/09/29 06:56:49;;;;;;;5.33;4.00;;;19.30;99.90;;;19.86;nan;100824.00;4905557;29;21247;-69
2023/09/29 06:59:16;;;;;;;3.77;3.40;;;19.40;99.90;;;19.97;nan;100836.09;4912915;29;20657;-68
2023/09/29 07:01:43;;;;;;;4.07;3.30;;;19.40;99.90;;;20.13;nan;100828.94;4896560;29;20682;-69
2023/09/29 07:04:10;;;;;;;3.70;3.40;;;19.60;99.90;;;20.27;nan;100831.97;4906703;29;20638;-68
2023/09/29 07:06:38;;;;;;;4.27;3.43;;;19.80;99.90;;;20.45;nan;100830.75;4909755;29;20662;-69
2023/09/29 07:09:07;;;;;;;4.23;3.60;;;19.90;99.90;;;20.63;nan;100827.91;4890875;29;20634;-68
2023/09/29 07:11:34;;;;;;;4.23;3.47;;;20.10;99.90;;;20.63;nan;100815.47;4911582;29;20648;-68
2023/09/29 07:14:01;;;;;;;4.43;3.17;;;20.20;99.90;;;20.62;nan;100810.31;4910157;29;20653;-68
2023/09/29 07:16:28;;;;;;;4.73;3.47;;;20.10;99.90;;;20.88;nan;100805.59;4908607;29;21279;-69
2023/09/29 07:18:55;;;;;;;6.53;3.37;;;20.30;99.90;;;21.45;nan;100798.19;4903977;29;20646;-68
2023/09/29 07:21:23;;;;;;;4.03;3.70;;;20.90;99.90;;;21.88;nan;100802.88;4888201;29;20669;-68
2023/09/29 07:23:50;;;;;;;4.20;3.40;;;21.30;99.90;;;22.52;nan;100793.44;4910327;29;20638;-68
2023/09/29 07:26:17;;;;;;;4.47;3.47;;;22.00;99.90;;;22.77;nan;100801.97;4907830;29;20689;-69
2023/09/29 07:28:44;;;;;;;4.30;3.90;;;22.40;99.90;;;22.53;nan;100796.94;4912502;29;20633;-69
2023/09/29 07:31:11;;;;;;;7.47;3.90;;;22.30;99.90;;;22.29;nan;100788.19;4911378;29;20658;-67
2023/09/29 07:33:38;;;;;;;5.13;3.40;;;22.00;99.90;;;22.19;nan;100789.47;4909085;29;20677;-68
2023/09/29 07:36:05;;;;;;;4.40;3.90;;;21.80;99.90;;;22.19;nan;100781.50;4912968;29;20669;-69
2023/09/29 07:38:32;;;;;;;6.53;4.07;;;21.80;99.90;;;22.11;nan;100794.84;4912872;29;21456;-69
2023/09/29 07:41:04;;;;;;;5.17;4.17;;;21.70;99.90;;;21.99;nan;100790.97;4922585;29;20757;-68
2023/09/29 07:43:31;;;;;;;5.37;3.63;;;21.60;99.90;;;21.92;nan;100785.56;4910241;29;20649;-67
2023/09/29 07:45:58;;;;;;;4.13;3.47;;;21.50;99.90;;;22.24;nan;100795.88;4911360;29;20662;-68
2023/09/29 07:48:27;;;;;;;3.70;3.40;;;21.70;99.90;;;23.50;nan;100804.50;4908311;29;20653;-66
2023/09/29 07:50:54;;;;;;;4.87;4.40;;;22.70;99.90;;;25.07;nan;100801.13;4905606;29;20642;-66
2023/09/29 07:53:21;;;;;;;4.20;3.80;;;24.20;99.90;;;26.44;nan;100799.66;4911701;29;20645;-71
2023/09/29 07:55:48;;;;;;;4.70;4.20;;;25.70;99.90;;;27.67;nan;100801.00;4909027;29;20680;-68
2023/09/29 07:58:15;;;;;;;6.83;4.33;;;27.10;99.90;;;28.55;nan;100798.97;4915601;29;20649;-66
2023/09/29 08:00:42;;;;;;;4.40;4.00;;;28.30;99.90;;;29.62;nan;100798.25;4914997;29;21297;-68
2023/09/29 08:03:09;;;;;;;4.43;3.90;;;29.30;99.30;;;30.36;nan;100803.03;4913699;29;20646;-68
2023/09/29 08:05:36;;;;;;;4.33;3.97;;;30.30;96.40;;;30.08;nan;100797.50;4916132;29;21243;-68
2023/09/29 08:08:05;;;;;;;4.17;3.77;;;30.20;95.20;;;29.60;nan;100798.47;4913193;29;20685;-68
2023/09/29 08:10:32;;;;;;;4.30;3.90;;;29.70;95.10;;;30.14;nan;100797.38;4915175;29;20646;-68
2023/09/29 08:12:59;;;;;;;4.50;3.53;;;30.00;94.70;;;30.71;nan;100809.19;4905941;29;21055;-69
2023/09/29 08:15:26;;;;;;;4.07;3.40;;;30.50;93.90;;;31.45;nan;100810.16;4911253;29;20649;-68
2023/09/29 08:17:53;;;;;;;4.27;3.77;;;31.30;92.80;;;31.26;nan;100806.81;4914232;29;20666;-70
2023/09/29 08:20:20;;;;;;;4.20;3.80;;;31.30;91.40;;;30.83;nan;100807.28;4915491;29;21179;-69
2023/09/29 08:22:47;;;;;;;3.77;3.30;;;30.80;91.30;;;30.07;nan;100810.13;4918671;29;20650;-70
2023/09/29 08:25:17;;;;;;;3.33;3.13;;;30.00;91.60;;;29.49;nan;100809.19;4927845;29;20634;-66
2023/09/29 08:27:44;;;;;;;4.30;3.90;;;29.30;92.40;;;28.95;nan;100812.78;4914382;29;20618;-70
2023/09/29 08:30:11;;;;;;;5.70;3.73;;;28.70;93.20;;;29.57;nan;100811.56;4922963;29;21015;-68
2023/09/29 08:32:40;;;;;;;3.83;3.50;;;29.20;93.00;;;30.48;nan;100812.75;4914409;29;20629;-67
2023/09/29 08:35:12;;;;;;;3.30;3.10;;;30.10;92.10;;;31.54;nan;100812.19;4912481;29;20661;-67
2023/09/29 08:37:43;;;;;;;5.87;4.77;;;31.30;90.50;;;32.80;nan;100812.28;4914930;29;20672;-69
2023/09/29 08:40:14;;;;;;;5.10;3.93;;;32.50;87.70;;;33.63;nan;100814.59;4913751;29;20657;-68
2023/09/29 08:42:46;;;;;;;3.70;3.43;;;33.50;83.70;;;34.65;nan;100800.69;4899174;29;20678;-69
2023/09/29 08:45:13;;;;;;;3.77;3.57;;;34.50;79.70;;;35.03;nan;100800.31;4912471;29;20653;-68
2023/09/29 08:47:40;;;;;;;5.13;3.90;;;35.00;76.60;;;35.77;nan;100799.91;4907447;29;20661;-68
2023/09/29 08:50:09;;;;;;;3.80;3.57;;;35.70;73.80;;;36.28;nan;100804.22;4914994;29;21429;-68
2023/09/29 08:52:37;;;;;;;4.27;3.87;;;36.10;71.50;;;35.92;nan;100810.75;4910632;29;20680;-70
2023/09/29 08:55:05;;;;;;;3.77;3.37;;;35.90;70.00;;;36.22;nan;100807.22;4909545;29;20665;-66
2023/09/29 08:57:33;;;;;;;2.87;2.73;;;36.20;68.50;;;36.37;nan;100813.44;4913993;29;20661;-69
2023/09/29 09:00:01;;;;;;;4.43;3.10;;;36.30;67.90;;;37.20;nan;100806.31;4911503;29;20728;-68
2023/09/29 09:02:28;;;;;;;3.57;3.37;;;36.90;66.90;;;37.83;nan;100809.97;4929833;29;20677;-71
2023/09/29 09:04:56;;;;;;;4.93;3.50;;;37.60;64.90;;;38.21;nan;100815.63;4910972;29;21204;-68
2023/09/29 09:07:23;;;;;;;3.20;3.03;;;38.10;63.20;;;37.63;nan;100812.81;4913391;29;21270;-68
2023/09/29 09:09:54;;;;;;;3.33;3.13;;;37.70;62.60;;;37.06;nan;100809.94;4912646;29;20660;-70
2023/09/29 09:12:36;;;;;;;3.40;3.20;;;37.10;62.80;;;36.77;nan;100806.25;4913798;29;20654;-68
2023/09/29 09:15:05;;;;;;;3.83;3.53;;;36.80;62.90;;;36.86;nan;100796.41;4906778;29;20644;-69
2023/09/29 09:17:35;;;;;;;3.57;3.27;;;36.70;63.10;;;36.95;nan;100802.94;4911927;29;21255;-70
2023/09/29 09:20:03;;;;;;;3.30;3.10;;;36.80;62.70;;;37.04;nan;100801.22;4913307;29;21179;-71
2023/09/29 09:22:38;;;;;;;3.00;2.80;;;36.90;62.30;;;37.18;nan;100805.78;4909667;29;20677;-70
2023/09/29 09:25:14;;;;;;;3.03;2.87;;;37.10;61.60;;;36.36;nan;100800.94;4913811;29;20648;-70
2023/09/29 09:27:43;;;;;;;3.37;3.17;;;36.40;62.00;;;34.46;nan;100798.69;4911281;29;20668;-69
2023/09/29 09:30:23;;;;;;;3.67;3.37;;;34.60;64.40;;;32.99;nan;100790.38;4910939;29;20652;-70
2023/09/29 09:32:51;;;;;;;7.40;3.30;;;33.00;67.70;;;32.36;nan;100791.69;4912996;29;21183;-68
2023/09/29 09:35:28;;;;;;;3.90;3.60;;;32.00;69.70;;;32.09;nan;100786.16;4914671;29;20640;-67
2023/09/29 09:37:57;;;;;;;4.20;3.80;;;31.50;71.90;;;31.45;nan;100786.72;4897062;29;20701;-70
2023/09/29 09:40:25;;;;;;;3.57;3.27;;;30.90;73.00;;;30.78;nan;100772.16;4906560;29;21232;-67
2023/09/29 09:43:03;;;;;;;6.73;3.50;;;30.20;74.60;;;30.09;nan;100773.03;4914285;29;21101;-68
2023/09/29 09:45:42;;;;;;;3.93;3.40;;;29.60;76.70;;;29.39;nan;100777.47;4910834;29;20669;-68
2023/09/29 09:48:16;;;;;;;3.50;3.10;;;29.00;78.60;;;29.01;nan;100774.28;4914108;29;20649;-67
2023/09/29 09:50:46;;;;;;;3.43;3.17;;;28.50;80.30;;;28.81;nan;100779.09;4913672;29;20636;-68
2023/09/29 09:53:17;;;;;;;5.00;3.30;;;28.20;81.50;;;28.56;nan;100784.50;4911475;29;21269;-68
2023/09/29 09:55:55;;;;;;;2.97;2.73;;;28.00;82.80;;;28.37;nan;100777.47;4906684;29;21057;-68
2023/09/29 09:58:23;;;;;;;3.17;2.97;;;27.80;84.00;;;28.29;nan;100775.09;4912971;29;20626;-70
2023/09/29 10:00:54;;;;;;;3.50;3.20;;;27.70;85.40;;;28.29;nan;100769.72;4911008;29;21254;-68
2023/09/29 10:03:24;;;;;;;3.57;2.97;;;27.70;86.30;;;28.18;nan;100773.97;4913252;29;20638;-69
2023/09/29 10:05:53;;;;;;;3.73;3.33;;;27.60;86.80;;;28.12;nan;100772.19;4911788;29;20657;-68
2023/09/29 10:08:33;;;;;;;3.40;3.10;;;27.50;87.50;;;28.06;nan;100772.22;4914586;29;20630;-69
2023/09/29 10:11:12;;;;;;;4.20;3.17;;;27.40;88.10;;;28.16;nan;100776.06;4905923;29;20645;-68
2023/09/29 10:13:42;;;;;;;4.07;3.70;;;27.50;88.80;;;28.28;nan;100768.91;4911153;29;20711;-68
2023/09/29 10:16:21;;;;;;;4.40;3.10;;;27.70;88.90;;;28.53;nan;100770.72;4909715;29;20670;-68
2023/09/29 10:19:05;;;;;;;3.17;2.97;;;27.90;89.00;;;28.96;nan;100774.94;4913408;29;20653;-68
2023/09/29 10:21:45;;;;;;;3.50;2.57;;;28.40;87.90;;;30.02;nan;100791.19;4924505;29;20675;-67
2023/09/29 10:24:27;;;;;;;3.87;3.07;;;29.50;86.20;;;30.41;nan;100790.50;4912239;29;20641;-68
2023/09/29 10:26:59;;;;;;;3.93;2.57;;;29.90;84.60;;;30.71;nan;100781.44;4914743;29;20662;-67
2023/09/29 10:29:29;;;;;;;3.07;2.83;;;30.00;84.20;;;30.28;nan;100779.97;4910857;29;21209;-68
2023/09/29 10:32:11;;;;;;;3.57;3.27;;;29.60;84.70;;;29.77;nan;100790.59;4927192;29;20634;-69